Weather at Haydock Park Airstrip

Public forecast

Using degrees Celsius for public forecast. Weather courtesy of forecast.io.

Closest aviation weather report (METAR) to Haydock Park Airstrip

Closest report is Liverpool John Lennon Airport, 11.9 nm (22.0 km) SW. Retrieved 2021/03/07 13:20 UTC (0 seconds ago):

EGGP 071320Z 32007KT 9999 BKN025 09/02 Q1027

Closest aviation forecast (TAF) to Haydock Park Airstrip

Closest forecast is Liverpool John Lennon Airport, 11.9 nm (22.0 km) SW. Retrieved 2021/03/07 12:00 UTC (1 hour ago):

TAF EGGP 071105Z 0712/0812 26004KT 9999 SCT040 PROB30 TEMPO 0807/0812 6000 RA BKN012